Time;durP1;ratioP1;P1;durP2;ratioP2;P2;SDS_P1;SDS_P2;PMS_P1;PMS_P2;Temp;Humidity;BMP_temperature;BMP_pressure;BME280_temperature;BME280_humidity;BME280_pressure;Samples;Min_cycle;Max_cycle;Signal;HPM_P1;HPM_P2
2022/10/22 06:44:49;;;;;;;0.50;0.50;;;14.80;77.50;;;14.79;65.69;94863.19;5125428;27;20287;-70
2022/10/22 06:48:20;;;;;;;0.60;0.60;;;15.10;77.90;;;15.69;64.36;94861.69;5167466;27;20905;-70
2022/10/22 06:50:47;;;;;;;0.57;0.57;;;15.50;78.50;;;16.25;62.95;94856.22;5128928;28;20192;-70
2022/10/22 06:53:14;;;;;;;0.60;0.60;;;15.90;78.20;;;16.78;62.07;94857.94;5128734;28;20188;-71
2022/10/22 06:55:41;;;;;;;0.60;0.60;;;16.40;77.60;;;17.21;61.13;94855.94;5079151;28;20229;-70
2022/10/22 06:58:08;;;;;;;0.60;0.60;;;16.80;77.10;;;17.59;60.35;94853.72;5092977;28;20666;-71
2022/10/22 07:00:35;;;;;;;0.50;0.50;;;17.10;76.60;;;17.92;59.46;94855.63;5108891;28;20621;-68
2022/10/22 07:03:03;;;;;;;0.52;0.52;;;17.50;76.20;;;18.21;59.05;94858.28;5108144;28;20216;-69
2022/10/22 07:05:33;;;;;;;0.50;0.50;;;17.80;75.80;;;18.47;58.68;94837.41;5125192;28;20688;-68
2022/10/22 07:08:00;;;;;;;0.60;0.60;;;18.00;75.40;;;18.68;58.14;94825.22;5108433;28;20206;-68
2022/10/22 07:10:27;;;;;;;0.60;0.60;;;18.30;75.30;;;18.90;58.30;94826.31;5112458;28;20197;-69
2022/10/22 07:12:57;;;;;;;0.50;0.50;;;18.50;74.90;;;19.09;57.53;94832.16;5095416;28;20197;-68
2022/10/22 07:15:24;;;;;;;0.50;0.50;;;18.70;74.60;;;19.26;57.56;94827.59;5113986;28;20204;-72
2022/10/22 07:17:52;;;;;;;0.50;0.50;;;18.90;74.40;;;19.42;56.96;94819.75;5130180;27;20221;-72
2022/10/22 07:20:20;;;;;;;0.50;0.50;;;19.10;74.10;;;19.56;56.82;94833.50;5113720;28;20198;-72
2022/10/22 07:22:47;;;;;;;0.50;0.50;;;19.20;73.80;;;19.68;56.61;94837.59;5114223;28;20217;-72
2022/10/22 07:25:15;;;;;;;0.50;0.50;;;19.40;73.50;;;19.80;55.93;94847.31;5111883;28;20273;-73
2022/10/22 07:27:42;;;;;;;0.50;0.50;;;19.50;73.30;;;19.90;56.04;94860.72;5094610;28;20725;-69
2022/10/22 07:30:10;;;;;;;0.40;0.40;;;19.60;73.10;;;19.98;55.36;94862.13;5094811;28;20194;-70
2022/10/22 07:32:37;;;;;;;0.50;0.50;;;19.70;72.80;;;20.08;55.33;94866.72;5111388;28;20186;-74
2022/10/22 07:35:05;;;;;;;0.40;0.40;;;19.80;72.70;;;20.15;55.52;94864.66;5090336;28;20214;-69
2022/10/22 07:37:33;;;;;;;0.47;0.47;;;19.90;72.50;;;20.21;55.09;94866.31;5110942;28;20190;-67
2022/10/22 07:40:02;;;;;;;0.50;0.50;;;20.00;72.40;;;20.27;55.32;94867.16;5107769;28;20275;-68
2022/10/22 07:42:33;;;;;;;0.47;0.47;;;20.10;72.20;;;20.33;54.75;94871.47;5103529;22;20695;-67
2022/10/22 07:45:00;;;;;;;0.50;0.50;;;20.10;71.90;;;20.39;54.69;94870.47;5073680;28;20190;-71
2022/10/22 07:47:29;;;;;;;0.60;0.60;;;20.20;71.90;;;20.43;54.14;94876.91;5091002;28;20219;-74
2022/10/22 07:49:58;;;;;;;0.40;0.40;;;20.20;71.60;;;20.48;54.42;94881.44;5057583;28;20255;-70
2022/10/22 07:52:26;;;;;;;0.55;0.55;;;20.30;71.50;;;20.54;54.29;94890.28;5091399;28;20193;-73
2022/10/22 07:54:53;;;;;;;0.50;0.50;;;20.30;71.30;;;20.56;54.03;94890.84;5073001;28;20195;-71
2022/10/22 07:57:21;;;;;;;0.50;0.50;;;20.30;71.20;;;20.60;53.79;94902.59;5073883;28;20192;-69
2022/10/22 07:59:48;;;;;;;0.50;0.50;;;20.40;71.10;;;20.62;54.11;94911.94;5076945;28;20196;-70
2022/10/22 08:02:15;;;;;;;0.40;0.40;;;20.40;71.00;;;20.61;53.63;94893.53;5044173;28;20200;-71
2022/10/22 08:04:42;;;;;;;0.50;0.50;;;20.40;70.90;;;20.66;53.47;94906.09;5060147;28;20210;-72
2022/10/22 08:07:09;;;;;;;0.50;0.50;;;20.50;70.80;;;20.71;53.26;94908.81;5059728;28;20212;-69
2022/10/22 08:09:37;;;;;;;0.40;0.40;;;20.50;70.70;;;20.66;53.62;94892.78;5078413;28;20277;-71
2022/10/22 08:12:04;;;;;;;0.50;0.50;;;20.60;70.70;;;20.74;53.09;94908.34;5060421;28;20218;-70
2022/10/22 08:14:32;;;;;;;0.40;0.40;;;20.50;70.50;;;20.71;52.90;94898.94;5059921;28;20193;-75
2022/10/22 08:17:03;;;;;;;0.50;0.50;;;20.50;70.30;;;20.76;53.26;94903.53;5076683;28;20199;-75
2022/10/22 08:19:37;;;;;;;0.45;0.45;;;20.60;70.30;;;20.78;53.10;94901.41;5043852;28;20220;-72
2022/10/22 08:23:00;;;;;;;0.40;0.40;;;20.60;71.10;;;20.76;52.67;94899.03;5055510;28;20258;-74
2022/10/22 08:25:59;;;;;;;0.40;0.40;;;20.60;70.00;;;20.77;53.20;94891.81;5042862;28;20192;-74
2022/10/22 08:28:28;;;;;;;0.40;0.40;;;20.70;70.10;;;20.78;53.10;94890.75;5075892;28;20620;-71
2022/10/22 08:35:17;;;;;;;0.40;0.40;;;20.70;69.90;;;20.75;52.60;94892.06;5074498;28;20238;-70
2022/10/22 08:38:21;;;;;;;0.40;0.40;;;20.70;69.80;;;20.76;52.86;94890.19;5060553;28;20227;-68
2022/10/22 08:45:40;;;;;;;0.57;0.57;;;20.70;69.70;;;20.73;52.50;94898.72;5034099;28;20246;-72
2022/10/22 08:48:42;;;;;;;0.40;0.40;;;20.70;69.50;;;20.74;52.58;94900.34;5051961;28;20208;-68
2022/10/22 08:51:19;;;;;;;0.40;0.40;;;20.70;69.40;;;20.76;52.43;94893.69;5052702;28;20492;-69
2022/10/22 08:54:24;;;;;;;0.40;0.40;;;20.70;69.50;;;20.78;52.43;94904.09;5036008;28;20206;-72
2022/10/22 08:57:53;;;;;;;0.43;0.43;;;20.70;69.60;;;20.75;52.02;94902.75;5052381;28;20194;-75
2022/10/22 09:00:33;;;;;;;0.60;0.60;;;20.70;69.40;;;20.78;52.25;94906.75;5035293;28;20203;-74
2022/10/22 09:03:22;;;;;;;0.50;0.50;;;20.70;69.30;;;20.82;52.33;94909.72;5036751;28;20194;-72
2022/10/22 09:06:10;;;;;;;0.55;0.55;;;20.70;69.30;;;20.82;52.40;94915.03;5051642;28;20182;-74
2022/10/22 09:17:26;;;;;;;0.73;0.73;;;20.70;69.10;;;20.73;52.06;94914.72;5122181;22;20619;-74
2022/10/22 09:20:25;;;;;;;0.40;0.40;;;20.70;69.00;;;20.81;52.31;94921.44;5099567;28;20228;-76
2022/10/22 09:23:12;;;;;;;0.43;0.43;;;20.70;68.90;;;20.82;51.86;94929.16;5097425;28;20258;-74
2022/10/22 09:25:43;;;;;;;0.40;0.40;;;20.70;69.00;;;20.85;52.23;94926.00;5103299;28;20205;-74
2022/10/22 09:28:11;;;;;;;0.50;0.50;;;20.80;69.10;;;20.84;51.93;94926.25;5099190;28;20209;-74
2022/10/22 09:30:40;;;;;;;0.60;0.60;;;20.80;69.00;;;20.85;51.82;94927.84;5099041;28;20575;-73
2022/10/22 09:33:32;;;;;;;0.40;0.40;;;20.70;68.90;;;20.90;51.47;94935.91;5082353;28;20194;-77
2022/10/22 09:36:21;;;;;;;0.50;0.50;;;20.80;68.90;;;20.92;51.94;94942.56;5081515;28;20173;-75
2022/10/22 09:38:52;;;;;;;0.40;0.40;;;20.80;68.80;;;20.92;51.73;94931.09;5113911;28;20272;-75
2022/10/22 09:41:24;;;;;;;0.50;0.50;;;20.80;69.20;;;20.96;51.49;94953.53;5095459;28;20210;-77
2022/10/22 16:13:07;;;;;;;0.50;0.50;;;21.30;66.40;;;21.32;49.21;95057.78;5613591;22;20259;-75
2022/10/22 16:15:34;;;;;;;0.40;0.40;;;21.30;66.40;;;21.34;49.01;95073.56;5100141;28;20291;-74
2022/10/22 16:18:01;;;;;;;0.50;0.50;;;21.20;66.40;;;21.33;49.32;95070.06;5100415;28;20628;-74
2022/10/22 16:20:28;;;;;;;0.40;0.40;;;21.20;66.50;;;21.32;49.44;95068.44;5099547;28;20211;-74
2022/10/22 16:22:55;;;;;;;0.43;0.43;;;21.20;66.50;;;21.33;49.06;95088.75;5100138;28;20217;-75
2022/10/22 16:25:24;;;;;;;0.50;0.50;;;21.20;66.70;;;21.33;48.95;95090.63;5117110;28;20204;-77
2022/10/22 16:27:51;;;;;;;0.40;0.40;;;21.20;67.60;;;21.35;48.82;95096.47;5117136;28;20193;-74
2022/10/22 16:30:18;;;;;;;0.40;0.40;;;21.20;66.70;;;21.34;49.41;95098.38;5117976;28;20192;-75
2022/10/22 16:32:46;;;;;;;0.35;0.35;;;21.20;66.70;;;21.35;49.28;95099.97;5117015;28;20623;-74
2022/10/22 16:35:13;;;;;;;0.45;0.45;;;21.20;66.70;;;21.32;49.28;95105.81;5100138;28;20190;-75
2022/10/22 16:37:40;;;;;;;0.40;0.40;;;21.20;66.70;;;21.35;49.41;95120.50;5117233;28;20192;-75
2022/10/22 16:40:09;;;;;;;0.40;0.40;;;21.20;66.70;;;21.36;49.49;95122.94;5116755;28;20248;-75
2022/10/22 16:42:36;;;;;;;0.40;0.40;;;21.20;67.60;;;21.36;49.37;95130.13;5116539;28;20197;-77
2022/10/22 16:45:04;;;;;;;0.50;0.50;;;21.20;66.60;;;21.38;49.14;95136.00;5099931;28;20208;-74
2022/10/22 16:47:31;;;;;;;0.40;0.40;;;21.20;66.70;;;21.39;49.32;95137.63;5116734;28;20207;-75
2022/10/22 16:49:59;;;;;;;0.40;0.40;;;21.20;66.70;;;21.37;49.29;95143.22;5118361;28;20241;-77
2022/10/22 16:52:27;;;;;;;0.40;0.40;;;21.20;66.60;;;21.40;49.00;95148.03;5116633;28;20206;-74
2022/10/22 16:54:54;;;;;;;0.40;0.40;;;21.30;66.70;;;21.40;49.29;95156.03;5099578;28;20201;-75
2022/10/22 16:57:21;;;;;;;0.50;0.50;;;21.30;66.70;;;21.41;49.19;95151.50;5117689;28;20193;-74
2022/10/22 16:59:48;;;;;;;0.40;0.40;;;21.20;66.50;;;21.41;48.98;95163.00;5116346;28;20601;-74
2022/10/22 17:02:15;;;;;;;0.60;0.60;;;21.20;66.50;;;21.43;49.10;95165.41;5099872;28;20188;-74
2022/10/22 17:04:43;;;;;;;0.50;0.50;;;21.20;66.50;;;21.40;49.29;95166.72;5116366;28;20188;-76
2022/10/22 17:07:10;;;;;;;0.40;0.40;;;21.30;66.60;;;21.44;49.17;95165.13;5100189;28;20193;-81
2022/10/22 17:09:40;;;;;;;0.40;0.40;;;21.30;66.60;;;21.45;49.20;95171.28;5116838;28;20716;-76
2022/10/22 17:12:07;;;;;;;0.45;0.45;;;21.30;66.60;;;21.45;49.20;95165.97;5099797;28;20199;-76
2022/10/22 17:14:35;;;;;;;0.45;0.45;;;21.30;66.60;;;21.46;49.12;95169.41;5117522;28;20552;-77
2022/10/22 17:17:02;;;;;;;0.50;0.50;;;21.30;66.60;;;21.45;49.23;95176.63;5082960;28;20209;-77
2022/10/22 17:19:30;;;;;;;0.30;0.30;;;21.30;66.70;;;21.44;49.25;95178.47;5099601;28;20240;-76
2022/10/22 17:21:58;;;;;;;0.50;0.50;;;21.30;66.70;;;21.41;49.15;95173.66;5117297;28;20194;-78
2022/10/22 17:24:25;;;;;;;0.40;0.40;;;21.30;66.70;;;21.47;49.03;95187.88;5116703;28;20624;-77
2022/10/22 17:26:53;;;;;;;0.40;0.40;;;21.30;66.70;;;21.48;49.42;95188.66;5084209;28;20258;-78
2022/10/22 17:29:20;;;;;;;0.40;0.40;;;21.30;66.70;;;21.49;49.38;95192.94;5116236;28;20221;-76
2022/10/22 17:31:49;;;;;;;0.45;0.45;;;21.30;66.60;;;21.49;49.17;95190.28;5115328;28;20195;-75
2022/10/22 17:34:16;;;;;;;0.50;0.50;;;21.30;66.60;;;21.49;49.30;95192.94;5099598;28;20192;-75
2022/10/22 17:36:44;;;;;;;0.50;0.50;;;21.30;66.60;;;21.49;49.27;95192.94;5099347;28;20308;-79
2022/10/22 17:39:16;;;;;;;0.50;0.50;;;21.30;66.70;;;21.51;49.26;95194.28;5099360;28;20238;-75
2022/10/22 17:41:44;;;;;;;0.50;0.50;;;21.30;66.60;;;21.51;49.00;95193.50;5082850;28;20185;-76
2022/10/22 17:44:12;;;;;;;0.40;0.40;;;21.30;66.70;;;21.53;49.39;95194.03;5099112;28;20216;-76
2022/10/22 17:46:40;;;;;;;0.40;0.40;;;21.40;66.80;;;21.52;49.08;95203.91;5082005;28;20200;-75
2022/10/22 17:49:19;;;;;;;0.50;0.50;;;21.40;66.70;;;21.49;49.13;95190.28;5098612;28;20588;-76
2022/10/22 17:51:47;;;;;;;0.40;0.40;;;21.30;66.60;;;21.53;49.13;95194.84;5098798;28;20174;-76
2022/10/22 17:54:14;;;;;;;0.43;0.43;;;21.40;66.70;;;21.55;49.20;95199.94;5115746;28;20303;-77
2022/10/22 17:56:42;;;;;;;0.40;0.40;;;21.40;66.70;;;21.56;49.39;95204.22;5098832;28;20187;-77
2022/10/22 17:59:13;;;;;;;0.50;0.50;;;21.40;66.70;;;21.54;49.08;95207.13;5098899;28;20227;-76
2022/10/22 18:01:44;;;;;;;0.40;0.40;;;21.40;66.70;;;21.54;49.40;95206.31;5115624;28;20177;-76
2022/10/22 18:04:17;;;;;;;0.47;0.47;;;21.40;66.70;;;21.57;49.23;95220.00;5116237;28;20592;-76
2022/10/22 18:06:46;;;;;;;0.50;0.50;;;21.40;66.60;;;21.56;49.42;95217.56;5098804;28;20205;-76
2022/10/22 18:09:16;;;;;;;0.40;0.40;;;21.40;66.70;;;21.57;49.07;95212.00;5098676;28;20212;-77
2022/10/22 18:11:46;;;;;;;0.45;0.45;;;21.40;66.70;;;21.59;49.27;95231.22;5099535;28;20610;-76
2022/10/22 18:14:16;;;;;;;0.32;0.32;;;21.40;66.60;;;21.59;48.98;95228.56;5098106;28;20743;-76
2022/10/22 18:16:44;;;;;;;0.60;0.60;;;21.40;66.70;;;21.58;48.96;95232.28;5098371;28;20281;-76
2022/10/22 18:19:15;;;;;;;0.40;0.40;;;21.40;66.60;;;21.60;49.64;95229.34;5098243;28;20260;-76
2022/10/22 18:21:43;;;;;;;0.50;0.50;;;21.40;66.60;;;21.59;49.00;95228.56;5114949;28;20646;-76
2022/10/22 18:24:14;;;;;;;0.40;0.40;;;21.40;66.60;;;21.54;49.39;95225.81;5076827;28;20221;-75
2022/10/22 18:26:42;;;;;;;0.50;0.50;;;21.40;66.50;;;21.58;49.34;95228.81;5113751;28;20699;-77
2022/10/22 18:29:14;;;;;;;0.40;0.40;;;21.40;66.60;;;21.61;49.31;95230.19;5072074;28;20566;-76
2022/10/22 18:31:43;;;;;;;0.43;0.43;;;21.40;66.60;;;21.60;49.20;95229.34;5057860;28;20266;-76
2022/10/22 18:34:10;;;;;;;0.40;0.40;;;21.50;66.60;;;21.57;49.39;95228.00;5077782;28;20297;-76
2022/10/22 18:36:39;;;;;;;0.40;0.40;;;21.40;66.50;;;21.58;49.37;95218.13;5061364;28;20305;-77
2022/10/22 18:39:07;;;;;;;0.40;0.40;;;21.50;66.60;;;21.61;49.29;95228.31;5063785;28;20193;-76
2022/10/22 18:41:35;;;;;;;0.35;0.35;;;21.40;66.60;;;21.61;48.91;95225.63;5059812;28;20263;-75
2022/10/22 18:44:05;;;;;;;0.45;0.45;;;21.40;66.60;;;21.63;49.28;95226.19;5085909;28;20263;-76
2022/10/22 18:46:37;;;;;;;0.40;0.40;;;21.40;66.50;;;21.63;49.49;95231.53;5077876;28;20213;-75
2022/10/22 18:49:08;;;;;;;0.43;0.43;;;21.40;66.60;;;21.64;49.23;95235.81;5061229;28;20222;-76
2022/10/22 18:51:36;;;;;;;0.40;0.40;;;21.50;66.60;;;21.65;48.93;95233.94;5061440;28;20174;-76
2022/10/22 18:54:03;;;;;;;0.45;0.45;;;21.50;66.70;;;21.65;49.33;95241.94;5077425;28;20194;-76
2022/10/22 18:56:47;;;;;;;0.40;0.40;;;21.40;66.50;;;21.63;49.07;95226.19;5062973;28;20201;-76
2022/10/22 18:59:21;;;;;;;0.40;0.40;;;21.40;66.50;;;21.64;48.91;95222.47;5095042;28;20617;-76
2022/10/22 19:01:51;;;;;;;0.40;0.40;;;21.50;66.60;;;21.64;48.86;95227.81;5061444;28;20196;-75
2022/10/22 19:04:19;;;;;;;0.50;0.50;;;21.50;66.60;;;21.65;49.11;95224.06;5060825;28;20192;-76
2022/10/22 19:06:46;;;;;;;0.40;0.40;;;21.50;66.70;;;21.64;49.27;95227.81;5077120;28;20209;-76
2022/10/22 19:09:15;;;;;;;0.50;0.50;;;21.50;66.60;;;21.65;49.13;95233.94;5077250;28;20247;-76
2022/10/22 19:11:44;;;;;;;0.50;0.50;;;21.40;66.60;;;21.66;49.25;95240.91;5077176;28;20201;-75
2022/10/22 19:14:13;;;;;;;0.40;0.40;;;21.50;66.60;;;21.66;49.01;95243.56;5077220;28;20237;-76
2022/10/22 19:16:41;;;;;;;0.50;0.50;;;21.50;66.70;;;21.66;49.01;95240.91;5059997;28;20223;-76
2022/10/22 19:19:08;;;;;;;0.50;0.50;;;21.50;66.70;;;21.67;49.28;95245.97;5077212;28;20193;-75
2022/10/22 19:21:37;;;;;;;0.50;0.50;;;21.50;66.70;;;21.59;48.99;95225.06;5075917;28;20201;-76
2022/10/22 19:24:05;;;;;;;0.40;0.40;;;21.50;66.60;;;21.68;48.98;95247.59;5097569;28;20258;-75
2022/10/22 19:26:34;;;;;;;0.43;0.43;;;21.50;66.60;;;21.68;49.06;95246.75;5080520;28;20643;-75
2022/10/22 19:29:03;;;;;;;0.40;0.40;;;21.50;66.70;;;21.68;49.05;95244.09;5097294;28;20216;-75
2022/10/22 19:31:31;;;;;;;0.40;0.40;;;21.50;66.60;;;21.67;49.11;95248.66;5113877;28;20512;-76
2022/10/22 19:34:00;;;;;;;0.40;0.40;;;21.50;66.60;;;21.68;49.36;95249.44;5060094;28;20190;-76
2022/10/22 19:36:31;;;;;;;0.40;0.40;;;21.50;66.60;;;21.69;49.18;95251.88;5069911;28;20702;-76
2022/10/22 19:38:59;;;;;;;0.40;0.40;;;21.50;66.50;;;21.68;49.27;95252.94;5077168;28;20259;-76
2022/10/22 19:41:29;;;;;;;0.40;0.40;;;21.50;66.60;;;21.69;49.12;95253.72;5091024;28;20216;-75
2022/10/22 19:43:58;;;;;;;0.40;0.40;;;21.50;66.60;;;21.69;49.04;95254.53;5080120;28;20203;-76
2022/10/22 19:46:28;;;;;;;0.40;0.40;;;21.50;66.60;;;21.70;48.91;95260.69;5063586;28;20219;-76
2022/10/22 19:48:56;;;;;;;0.40;0.40;;;21.50;66.60;;;21.64;49.02;95249.16;5096938;28;20274;-75
2022/10/22 19:51:28;;;;;;;0.40;0.40;;;21.50;66.60;;;21.69;49.22;95257.22;5113820;28;20219;-75
2022/10/22 19:54:06;;;;;;;0.35;0.35;;;21.50;66.50;;;21.69;49.00;95253.72;5114108;28;20170;-75
2022/10/22 19:56:41;;;;;;;0.40;0.40;;;21.50;66.50;;;21.70;49.43;95255.34;5100728;28;20204;-75
2022/10/22 19:59:23;;;;;;;0.40;0.40;;;21.50;66.50;;;21.70;49.16;95258.00;5100633;28;20211;-75
2022/10/22 20:02:18;;;;;;;0.30;0.30;;;21.50;66.50;;;21.66;49.34;95255.03;5117523;28;20189;-75
2022/10/22 20:04:50;;;;;;;0.40;0.40;;;21.50;66.50;;;21.70;49.05;95261.50;5100720;28;20231;-76
2022/10/22 20:07:21;;;;;;;0.40;0.40;;;21.50;66.50;;;21.68;49.03;95250.25;5113408;28;20197;-76
2022/10/22 20:09:48;;;;;;;0.40;0.40;;;21.50;66.50;;;21.65;49.23;95248.09;5063594;28;20596;-75
2022/10/22 20:12:15;;;;;;;0.40;0.40;;;21.50;66.50;;;21.71;49.21;95262.28;5096845;28;20219;-75
2022/10/22 20:14:42;;;;;;;0.50;0.50;;;21.50;66.50;;;21.67;49.20;95253.97;5080185;28;20647;-75
2022/10/22 20:17:10;;;;;;;0.40;0.40;;;21.50;66.60;;;21.64;49.03;95243.00;5096662;28;20209;-75
2022/10/22 20:19:37;;;;;;;0.40;0.40;;;21.50;66.50;;;21.70;49.10;95244.66;5063768;28;20227;-75
2022/10/22 20:22:04;;;;;;;0.40;0.40;;;21.50;66.60;;;21.71;49.26;95255.06;5097698;28;20234;-75
2022/10/22 20:24:32;;;;;;;0.40;0.40;;;21.50;66.50;;;21.71;49.29;95246.28;5117941;28;20535;-75
2022/10/22 20:26:59;;;;;;;0.50;0.50;;;21.50;66.50;;;21.71;48.88;95248.94;5100066;28;20239;-75
2022/10/22 20:29:26;;;;;;;0.40;0.40;;;21.50;66.50;;;21.71;48.96;95256.94;5099946;28;20238;-75
2022/10/22 20:31:54;;;;;;;0.40;0.40;;;21.50;66.50;;;21.73;48.87;95260.97;5100031;28;20698;-75
2022/10/22 20:34:21;;;;;;;0.40;0.40;;;21.50;66.50;;;21.72;48.94;95256.69;5083231;28;20193;-76
2022/10/22 20:36:48;;;;;;;0.40;0.40;;;21.60;66.70;;;21.69;48.95;95256.38;5099834;28;20635;-76
2022/10/22 20:39:17;;;;;;;0.40;0.40;;;21.50;66.50;;;21.72;49.23;95267.38;5099852;28;20209;-75
2022/10/22 20:41:44;;;;;;;0.40;0.40;;;21.50;66.50;;;21.73;48.94;95254.84;5083091;28;20240;-76
2022/10/22 20:44:15;;;;;;;0.45;0.45;;;21.50;67.40;;;21.72;49.31;95258.56;5099683;28;20304;-76
2022/10/22 20:46:43;;;;;;;0.50;0.50;;;21.50;66.50;;;21.73;48.91;95260.97;5099851;28;20182;-76
2022/10/22 20:49:14;;;;;;;0.50;0.50;;;21.50;66.40;;;21.74;48.79;95269.81;5082686;28;20281;-75
2022/10/22 20:51:52;;;;;;;0.40;0.40;;;21.50;66.40;;;21.74;48.64;95272.47;5083249;28;20177;-75
2022/10/22 20:54:41;;;;;;;0.57;0.57;;;21.50;66.40;;;21.70;48.93;95268.69;5085280;28;20204;-75
2022/10/22 20:57:08;;;;;;;0.40;0.40;;;21.60;66.60;;;21.75;48.97;95274.06;5099932;28;20300;-75
2022/10/22 20:59:35;;;;;;;0.40;0.40;;;21.60;66.50;;;21.74;49.08;95273.28;5099750;28;20216;-75
2022/10/22 21:02:03;;;;;;;0.50;0.50;;;21.60;66.50;;;21.74;49.22;95278.63;5099173;28;20629;-75
2022/10/22 21:04:33;;;;;;;0.50;0.50;;;21.50;66.50;;;21.75;49.07;95288.22;5100616;28;20197;-75
2022/10/22 21:07:01;;;;;;;0.40;0.40;;;21.60;66.60;;;21.74;49.14;95278.63;5101166;28;20190;-76
2022/10/22 21:09:29;;;;;;;0.40;0.40;;;21.60;66.60;;;21.75;49.28;95280.22;5099519;28;20465;-76
2022/10/22 21:12:02;;;;;;;0.40;0.40;;;21.60;66.60;;;21.74;49.12;95275.94;5082452;28;20597;-75
2022/10/22 21:14:29;;;;;;;0.40;0.40;;;21.50;66.50;;;21.71;49.31;95270.31;5097709;28;20248;-75
2022/10/22 21:16:58;;;;;;;0.40;0.40;;;21.60;67.50;;;21.74;49.02;95281.28;5099078;28;20213;-75
2022/10/22 21:19:38;;;;;;;0.45;0.45;;;21.60;66.60;;;21.77;49.11;95281.84;5092126;28;20678;-75
2022/10/22 21:22:06;;;;;;;0.40;0.40;;;21.60;66.60;;;21.72;49.00;95266.56;5063400;28;20201;-76
2022/10/22 21:24:33;;;;;;;0.50;0.50;;;21.60;66.50;;;21.76;49.31;95273.00;5063936;28;20657;-76
2022/10/22 21:27:02;;;;;;;0.50;0.50;;;21.60;66.60;;;21.75;48.88;95274.88;5115464;28;20281;-76
2022/10/22 21:29:30;;;;;;;0.38;0.38;;;21.60;66.50;;;21.75;48.80;95272.22;5099080;28;20227;-77
2022/10/22 21:31:58;;;;;;;0.40;0.40;;;21.60;66.50;;;21.77;49.28;95271.97;5099605;28;20190;-75
2022/10/22 21:34:26;;;;;;;0.40;0.40;;;21.60;66.60;;;21.71;48.97;95264.97;5075731;28;20190;-76
2022/10/22 21:36:53;;;;;;;0.40;0.40;;;21.60;66.60;;;21.78;48.90;95270.91;5087745;28;20228;-76
2022/10/22 21:39:20;;;;;;;0.50;0.50;;;21.60;66.60;;;21.74;49.28;95272.47;5093663;28;20512;-76
2022/10/22 21:41:49;;;;;;;0.50;0.50;;;21.60;66.70;;;21.80;49.28;95281.31;5089298;28;20229;-76
2022/10/22 21:44:17;;;;;;;0.40;0.40;;;21.60;66.80;;;21.81;49.30;95272.25;5098681;28;20225;-76
2022/10/22 21:46:51;;;;;;;0.40;0.40;;;21.60;66.80;;;21.83;49.50;95273.59;5116337;28;20203;-76
2022/10/22 21:50:19;;;;;;;0.47;0.47;;;21.60;66.80;;;21.82;49.25;95268.53;5096859;28;20241;-77
2022/10/22 21:53:26;;;;;;;0.60;0.60;;;21.70;66.80;;;21.82;49.39;95269.31;5999086;22;20252;-75
2022/10/22 22:03:15;;;;;;;0.40;0.40;;;21.80;66.70;;;21.84;49.49;95274.44;5429610;23;20292;-75
2022/10/22 22:05:44;;;;;;;0.40;0.40;;;21.80;66.70;;;21.87;49.41;95263.22;5037328;28;20191;-75
2022/10/22 22:08:12;;;;;;;0.40;0.40;;;21.80;66.80;;;21.91;49.54;95267.81;5021195;28;20213;-75
2022/10/22 22:10:40;;;;;;;0.30;0.30;;;21.80;66.80;;;21.93;49.59;95267.53;5037867;28;20233;-75
2022/10/22 22:13:08;;;;;;;0.40;0.40;;;21.80;66.80;;;21.96;49.57;95266.22;5006367;28;20223;-75
2022/10/22 22:15:35;;;;;;;0.45;0.45;;;21.80;66.80;;;21.96;49.65;95259.03;5018020;28;20238;-75
2022/10/22 22:18:03;;;;;;;0.43;0.43;;;21.80;66.80;;;22.00;49.25;95264.69;5017906;28;20200;-75
2022/10/22 22:20:30;;;;;;;0.40;0.40;;;21.90;66.80;;;22.02;49.22;95271.38;5003083;28;21035;-75
2022/10/22 22:22:57;;;;;;;0.40;0.40;;;21.90;66.80;;;21.96;49.55;95264.38;5034248;28;20195;-75
2022/10/22 22:25:24;;;;;;;0.35;0.35;;;21.90;66.70;;;22.06;49.27;95283.16;5001601;28;20241;-75
2022/10/22 22:27:52;;;;;;;0.40;0.40;;;21.90;66.70;;;22.08;49.30;95285.56;5001287;28;20287;-74
2022/10/22 22:30:19;;;;;;;0.40;0.40;;;21.90;66.60;;;22.09;49.24;95292.50;5017743;28;20680;-75
2022/10/22 22:32:46;;;;;;;0.40;0.40;;;21.90;66.70;;;22.12;49.34;95293.84;5017433;28;20243;-75
2022/10/22 22:35:14;;;;;;;0.40;0.40;;;21.90;66.70;;;22.13;49.25;95303.50;5007747;28;20223;-75
2022/10/22 22:37:41;;;;;;;0.50;0.50;;;21.90;66.60;;;22.13;49.28;95298.97;5014936;28;20634;-75
